EGAC

George Best Belfast City Airport

Belfast, United Kingdom
METAR EGAC 231450Z AUTO 10008KT 050V140 9999 NCD 16/10 Q1026
Observed Flight Rules
May-23 @ 14:50 UTC (13 minutes ago) Visual Flight Rules
Wind Visibility Clouds
100° at 8 knots 10,000+ meters
  • Clear skies
Temperatures Readings
Current 16°C / 61°F
Dewpoint 10°C / 50°F
Humidity 68%
Altimeter 30.3" Hg
Pressure 1026 hPa
Elevation 5
METAR EGAC 231450Z AUTO 10008KT 050V140 9999 NCD 16/10 Q1026
Observed Flight Rules
May-23 @ 14:50 UTC
(13 minutes ago)
VFR
Wind Visibility
100° at 8 knots 10,000+ meters
Clouds
  • Clear skies
Temperature Dewpoint
16°C / 61°F 10°C / 50°F
Humidity Altimeter Pressure
68% 30.3" Hg 1026 hPa